createdAt,value
2019-05-16T00:00:05.019Z,1016.93
2019-05-16T00:01:05.877Z,1017.01
2019-05-16T00:02:05.406Z,1016.94
2019-05-16T00:03:07.895Z,1017.01
2019-05-16T00:04:05.754Z,1017.02
2019-05-16T00:05:08.242Z,1016.93
2019-05-16T00:06:08.442Z,1016.92
2019-05-16T00:07:08.026Z,1016.94
2019-05-16T00:08:11.879Z,1016.88
2019-05-16T00:09:08.051Z,1016.83
2019-05-16T00:10:08.639Z,1016.80
2019-05-16T00:11:08.612Z,1016.85
2019-05-16T00:12:08.716Z,1016.82
2019-05-16T00:13:08.579Z,1016.79
2019-05-16T00:14:08.584Z,1016.81
2019-05-16T00:15:09.094Z,1016.79
2019-05-16T00:16:08.999Z,1016.80
2019-05-16T00:17:08.915Z,1016.77
2019-05-16T00:18:08.778Z,1016.77
2019-05-16T00:19:09.536Z,1016.72
2019-05-16T00:20:09.471Z,1016.72
2019-05-16T00:21:10.878Z,1016.69
2019-05-16T00:22:09.095Z,1016.71
2019-05-16T00:23:09.218Z,1016.59
2019-05-16T00:24:09.342Z,1016.59
2019-05-16T00:25:10.378Z,1016.62
2019-05-16T00:26:09.726Z,1016.64
2019-05-16T00:27:10.405Z,1016.65
2019-05-16T00:28:10.878Z,1016.54
2019-05-16T00:29:10.872Z,1016.57
2019-05-16T00:30:10.492Z,1016.65
2019-05-16T00:31:10.722Z,1016.55
2019-05-16T00:32:10.847Z,1016.53
2019-05-16T00:33:10.996Z,1016.54
2019-05-16T00:34:11.882Z,1016.48
2019-05-16T00:35:11.233Z,1016.47
2019-05-16T00:36:11.380Z,1016.39
2019-05-16T00:37:11.553Z,1016.36
2019-05-16T00:38:11.905Z,1016.36
2019-05-16T00:39:11.906Z,1016.38
2019-05-16T00:40:45.436Z,1016.41
2019-05-16T00:41:12.265Z,1016.37
2019-05-16T00:42:12.387Z,1016.39
2019-05-16T00:43:12.652Z,1016.34
2019-05-16T00:44:12.773Z,1016.33
2019-05-16T00:45:13.476Z,1016.36
2019-05-16T00:46:14.891Z,1016.30
2019-05-16T00:47:13.245Z,1016.26
2019-05-16T00:48:13.932Z,1016.26
2019-05-16T00:49:13.576Z,1016.28
2019-05-16T00:50:13.729Z,1016.19
2019-05-16T00:51:13.868Z,1016.25
2019-05-16T00:52:14.017Z,1016.17
2019-05-16T00:53:14.178Z,1016.16
2019-05-16T00:54:14.324Z,1016.14
2019-05-16T00:55:14.473Z,1016.18
2019-05-16T00:56:14.623Z,1016.20
2019-05-16T00:57:14.766Z,1016.15
2019-05-16T00:58:14.922Z,1016.17
2019-05-16T00:59:15.104Z,1016.11
2019-05-16T01:00:15.426Z,1016.10
2019-05-16T01:01:18.755Z,1016.11
2019-05-16T01:02:15.643Z,1016.15
2019-05-16T01:03:15.803Z,1016.06
2019-05-16T01:04:18.124Z,1016.08
2019-05-16T01:05:16.124Z,1016.06
2019-05-16T01:06:21.910Z,1016.04
2019-05-16T01:07:18.750Z,1016.08
2019-05-16T01:08:18.950Z,1016.04
2019-05-16T01:09:18.843Z,1016.03
2019-05-16T01:10:18.434Z,1015.99
2019-05-16T01:11:18.606Z,1016.00
2019-05-16T01:12:18.403Z,1015.96
2019-05-16T01:13:18.541Z,1015.96
2019-05-16T01:14:18.772Z,1015.98
2019-05-16T01:15:18.438Z,1015.95
2019-05-16T01:16:19.058Z,1015.94
2019-05-16T01:17:18.365Z,1015.85
2019-05-16T01:18:19.403Z,1015.92
2019-05-16T01:19:18.728Z,1015.85
2019-05-16T01:20:19.759Z,1015.83
2019-05-16T01:21:18.890Z,1015.82
2019-05-16T01:22:19.063Z,1015.85
2019-05-16T01:23:52.594Z,1015.81
2019-05-16T01:24:19.425Z,1015.81
2019-05-16T01:25:19.746Z,1015.77
2019-05-16T01:26:20.422Z,1015.77
2019-05-16T01:27:20.059Z,1015.75
2019-05-16T01:28:20.202Z,1015.78
2019-05-16T01:29:20.430Z,1015.71
2019-05-16T01:30:20.582Z,1015.75
2019-05-16T01:31:20.737Z,1015.69
2019-05-16T01:32:20.879Z,1015.68
2019-05-16T01:33:21.118Z,1015.67
2019-05-16T01:34:21.369Z,1015.62
2019-05-16T01:35:21.508Z,1015.63
2019-05-16T01:36:33.517Z,1015.60
2019-05-16T01:37:23.774Z,1015.56
2019-05-16T01:38:22.934Z,1015.60
2019-05-16T01:39:22.153Z,1015.65
2019-05-16T01:40:23.312Z,1015.66
2019-05-16T01:41:55.968Z,1015.61
2019-05-16T01:42:57.832Z,1015.63
2019-05-16T01:43:22.854Z,1015.69
2019-05-16T01:44:23.978Z,1015.69
2019-05-16T01:45:23.203Z,1015.68
2019-05-16T01:46:23.356Z,1015.69
2019-05-16T01:47:23.523Z,1015.69
2019-05-16T01:48:23.663Z,1015.63
2019-05-16T01:49:23.880Z,1015.58
2019-05-16T01:50:24.126Z,1015.62
2019-05-16T01:51:24.229Z,1015.63
2019-05-16T01:52:24.495Z,1015.59
2019-05-16T01:53:24.625Z,1015.55
2019-05-16T01:54:24.750Z,1015.52
2019-05-16T01:55:24.889Z,1015.51
2019-05-16T01:56:25.007Z,1015.54
2019-05-16T01:57:25.266Z,1015.52
2019-05-16T01:58:25.974Z,1015.57
2019-05-16T01:59:25.584Z,1015.55
2019-05-16T02:00:35.734Z,1015.43
2019-05-16T02:01:28.724Z,1015.49
2019-05-16T02:06:21.498Z,1015.47
2019-05-16T02:07:21.611Z,1015.49
2019-05-16T02:08:21.735Z,1015.41
2019-05-16T02:09:21.864Z,1015.48
2019-05-16T02:10:22.039Z,1015.48
2019-05-16T02:11:23.118Z,1015.43
2019-05-16T02:12:22.365Z,1015.46
2019-05-16T02:13:58.564Z,1015.37
2019-05-16T02:14:24.748Z,1015.46
2019-05-16T02:15:24.735Z,1015.45
2019-05-16T02:16:24.217Z,1015.43
2019-05-16T02:17:24.329Z,1015.43
2019-05-16T02:18:24.469Z,1015.40
2019-05-16T02:19:24.568Z,1015.45
2019-05-16T02:20:25.246Z,1015.43
2019-05-16T02:21:24.877Z,1015.47
2019-05-16T02:22:25.762Z,1015.49
2019-05-16T02:23:25.256Z,1015.47
2019-05-16T02:24:28.472Z,1015.47
2019-05-16T02:25:27.683Z,1015.46
2019-05-16T02:26:28.303Z,1015.43
2019-05-16T02:27:28.691Z,1015.43
2019-05-16T02:28:30.920Z,1015.43
2019-05-16T02:29:29.869Z,1015.46
2019-05-16T02:30:27.245Z,1015.48
2019-05-16T02:31:26.579Z,1015.41
2019-05-16T02:32:26.818Z,1015.47
2019-05-16T02:33:27.753Z,1015.45
2019-05-16T02:34:30.615Z,1015.41
2019-05-16T02:35:27.371Z,1015.36
2019-05-16T02:36:27.519Z,1015.38
2019-05-16T02:37:33.402Z,1015.35
2019-05-16T02:38:31.673Z,1015.32
2019-05-16T02:39:30.639Z,1015.36
2019-05-16T02:40:31.035Z,1015.41
2019-05-16T02:41:31.139Z,1015.39
2019-05-16T02:42:31.070Z,1015.34
2019-05-16T02:44:03.167Z,1015.41
2019-05-16T02:44:31.943Z,1015.38
2019-05-16T02:45:32.370Z,1015.37
2019-05-16T02:46:30.829Z,1015.35
2019-05-16T02:47:34.844Z,1015.36
2019-05-16T02:48:31.788Z,1015.33
2019-05-16T02:49:34.164Z,1015.32
2019-05-16T02:50:31.557Z,1015.25
2019-05-16T02:51:31.692Z,1015.29
2019-05-16T02:52:31.830Z,1015.29
2019-05-16T02:53:31.626Z,1015.28
2019-05-16T02:54:31.604Z,1015.22
2019-05-16T02:55:32.008Z,1015.31
2019-05-16T02:56:31.790Z,1015.31
2019-05-16T02:57:32.296Z,1015.32
2019-05-16T02:58:31.534Z,1015.34
2019-05-16T02:59:31.653Z,1015.38
2019-05-16T03:00:31.781Z,1015.28
2019-05-16T03:01:31.965Z,1015.26
2019-05-16T03:02:32.109Z,1015.31
2019-05-16T03:03:32.779Z,1015.26
2019-05-16T03:04:33.282Z,1015.26
2019-05-16T03:05:32.636Z,1015.28
2019-05-16T03:06:32.756Z,1015.26
2019-05-16T03:07:41.690Z,1015.26
2019-05-16T03:08:35.005Z,1015.25
2019-05-16T03:09:34.210Z,1015.20
2019-05-16T03:10:33.455Z,1015.19
2019-05-16T03:11:33.581Z,1015.15
2019-05-16T03:12:33.740Z,1015.10
2019-05-16T03:13:34.780Z,1015.06
2019-05-16T03:15:10.710Z,1015.12
2019-05-16T03:15:34.133Z,1015.14
2019-05-16T03:16:34.247Z,1015.13
2019-05-16T03:17:34.512Z,1015.16
2019-05-16T03:18:34.613Z,1015.13
2019-05-16T03:19:35.787Z,1015.08
2019-05-16T03:20:35.014Z,1015.07
2019-05-16T03:21:35.130Z,1015.09
2019-05-16T03:22:35.389Z,1015.09
2019-05-16T03:23:35.496Z,1015.08
2019-05-16T03:24:36.697Z,1015.13
2019-05-16T03:25:35.900Z,1015.09
2019-05-16T03:26:36.022Z,1015.06
2019-05-16T03:27:36.164Z,1015.05
2019-05-16T03:28:36.814Z,1015.04
2019-05-16T03:29:36.842Z,1015.07
2019-05-16T03:30:36.687Z,1015.05
2019-05-16T03:31:36.809Z,1015.04
2019-05-16T03:32:36.970Z,1015.02
2019-05-16T03:33:48.414Z,1015.03
2019-05-16T03:34:43.301Z,1015.06
2019-05-16T03:35:44.025Z,1014.98
2019-05-16T03:36:43.364Z,1015.03
2019-05-16T03:37:54.471Z,1015.03
2019-05-16T03:38:41.382Z,1014.97
2019-05-16T03:39:40.672Z,1014.98
2019-05-16T03:40:41.291Z,1014.98
2019-05-16T03:41:41.453Z,1014.95
2019-05-16T03:42:41.652Z,1014.88
2019-05-16T03:43:41.189Z,1014.87
2019-05-16T03:44:41.061Z,1014.93
2019-05-16T03:45:41.784Z,1014.90
2019-05-16T03:46:41.319Z,1014.93
2019-05-16T03:47:42.705Z,1014.97
2019-05-16T03:48:41.080Z,1014.92
2019-05-16T03:49:42.249Z,1014.92
2019-05-16T03:50:41.406Z,1014.93
2019-05-16T03:51:41.724Z,1014.92
2019-05-16T03:52:43.489Z,1014.95
2019-05-16T03:53:41.766Z,1015.02
2019-05-16T03:54:42.044Z,1014.95
2019-05-16T03:55:42.192Z,1014.99
2019-05-16T03:56:41.304Z,1014.99
2019-05-16T03:57:42.042Z,1014.91
2019-05-16T03:58:41.962Z,1014.98
2019-05-16T03:59:41.788Z,1014.99
2019-05-16T04:00:45.629Z,1014.93
2019-05-16T04:01:43.121Z,1014.93
2019-05-16T04:02:45.633Z,1014.89
2019-05-16T04:03:42.440Z,1014.91
2019-05-16T04:04:42.563Z,1014.88
2019-05-16T04:05:42.720Z,1014.91
2019-05-16T04:06:42.927Z,1014.86
2019-05-16T04:07:43.043Z,1014.86
2019-05-16T04:08:43.806Z,1014.89
2019-05-16T04:09:44.304Z,1014.81
2019-05-16T04:10:43.512Z,1014.84
2019-05-16T04:11:43.657Z,1014.84
2019-05-16T04:12:43.765Z,1014.85
2019-05-16T04:13:43.904Z,1014.89
2019-05-16T04:14:44.012Z,1014.82
2019-05-16T04:15:44.315Z,1014.84
2019-05-16T04:16:44.301Z,1014.79
2019-05-16T04:17:44.582Z,1014.85
2019-05-16T04:18:44.694Z,1014.83
2019-05-16T04:19:45.312Z,1014.78
2019-05-16T04:20:45.329Z,1014.81
2019-05-16T04:21:45.166Z,1014.82
2019-05-16T04:22:45.404Z,1014.80
2019-05-16T04:23:45.542Z,1014.78
2019-05-16T04:24:45.776Z,1014.70
2019-05-16T04:25:45.913Z,1014.81
2019-05-16T04:26:46.065Z,1014.67
2019-05-16T04:27:46.217Z,1014.70
2019-05-16T04:28:46.345Z,1014.70
2019-05-16T04:29:46.580Z,1014.63
2019-05-16T04:30:50.516Z,1014.72
2019-05-16T04:31:46.906Z,1014.68
2019-05-16T04:32:47.173Z,1014.65
2019-05-16T04:33:47.321Z,1014.68
2019-05-16T04:34:47.431Z,1014.64
2019-05-16T04:35:47.689Z,1014.69
2019-05-16T04:36:47.779Z,1014.73
2019-05-16T04:37:51.091Z,1014.69
2019-05-16T04:38:51.023Z,1014.67
2019-05-16T04:39:50.657Z,1014.70
2019-05-16T04:40:51.565Z,1014.63
2019-05-16T04:41:50.907Z,1014.73
2019-05-16T04:42:51.327Z,1014.64
2019-05-16T04:43:50.743Z,1014.61
2019-05-16T04:44:51.518Z,1014.65
2019-05-16T04:45:52.172Z,1014.65
2019-05-16T04:46:51.117Z,1014.62
2019-05-16T04:47:51.426Z,1014.65
2019-05-16T04:48:51.086Z,1014.61
2019-05-16T04:49:52.007Z,1014.65
2019-05-16T04:50:52.695Z,1014.64
2019-05-16T04:51:51.646Z,1014.61
2019-05-16T04:52:52.306Z,1014.66
2019-05-16T04:53:51.117Z,1014.59
2019-05-16T04:54:52.117Z,1014.72
2019-05-16T04:55:52.549Z,1014.67
2019-05-16T04:56:51.687Z,1014.72
2019-05-16T04:57:52.323Z,1014.65
2019-05-16T04:58:51.959Z,1014.78
2019-05-16T04:59:52.808Z,1014.76
2019-05-16T05:00:52.598Z,1014.77
2019-05-16T05:01:52.434Z,1014.81
2019-05-16T05:02:52.689Z,1014.76
2019-05-16T05:04:08.762Z,1014.78
2019-05-16T05:04:55.805Z,1014.83
2019-05-16T05:05:53.226Z,1014.83
2019-05-16T05:06:55.808Z,1014.84
2019-05-16T05:07:54.632Z,1014.88
2019-05-16T05:08:58.702Z,1014.84
2019-05-16T05:09:56.815Z,1014.86
2019-05-16T05:10:54.300Z,1014.87
2019-05-16T05:11:54.441Z,1014.87
2019-05-16T05:12:54.595Z,1014.90
2019-05-16T05:13:54.705Z,1014.88
2019-05-16T05:14:54.944Z,1014.90
2019-05-16T05:15:56.275Z,1014.87
2019-05-16T05:16:55.230Z,1014.90
2019-05-16T05:17:55.492Z,1014.87
2019-05-16T05:18:55.598Z,1014.87
2019-05-16T05:19:55.853Z,1014.90
2019-05-16T05:20:55.972Z,1014.88
2019-05-16T05:21:56.206Z,1014.87
2019-05-16T05:22:56.314Z,1014.90
2019-05-16T05:23:56.553Z,1014.91
2019-05-16T05:24:56.803Z,1014.87
2019-05-16T05:25:56.908Z,1014.93
2019-05-16T05:26:59.828Z,1014.87
2019-05-16T05:27:57.243Z,1014.96
2019-05-16T05:28:59.673Z,1014.95
2019-05-16T05:29:57.518Z,1014.86
2019-05-16T05:30:59.794Z,1014.89
2019-05-16T05:32:03.548Z,1014.87
2019-05-16T05:33:00.737Z,1014.89
2019-05-16T05:34:00.979Z,1014.89
2019-05-16T05:34:59.897Z,1014.85
2019-05-16T05:36:01.061Z,1014.88
2019-05-16T05:37:00.470Z,1014.86
2019-05-16T05:38:00.385Z,1014.89
2019-05-16T05:39:11.845Z,1014.78
2019-05-16T05:40:01.273Z,1014.85
2019-05-16T05:41:00.423Z,1014.81
2019-05-16T05:42:00.112Z,1014.91
2019-05-16T05:43:00.828Z,1014.81
2019-05-16T05:44:00.085Z,1014.86
2019-05-16T05:45:00.812Z,1014.89
2019-05-16T05:46:00.638Z,1014.85
2019-05-16T05:47:01.583Z,1014.83
2019-05-16T05:48:01.320Z,1014.85
2019-05-16T05:49:01.039Z,1014.90
2019-05-16T05:50:01.189Z,1014.84
2019-05-16T05:51:01.355Z,1014.86
2019-05-16T05:52:01.498Z,1014.89
2019-05-16T05:53:01.646Z,1014.90
2019-05-16T05:54:01.831Z,1014.90
2019-05-16T05:55:02.814Z,1014.90
2019-05-16T05:56:02.176Z,1014.90
2019-05-16T05:57:02.315Z,1014.88
2019-05-16T05:58:02.456Z,1014.89
2019-05-16T05:59:02.582Z,1014.84
2019-05-16T06:00:02.720Z,1014.83
2019-05-16T06:01:02.869Z,1014.81
2019-05-16T06:02:03.033Z,1014.84
2019-05-16T06:03:03.185Z,1014.83
2019-05-16T06:04:03.317Z,1014.82
2019-05-16T06:05:03.460Z,1014.76
2019-05-16T06:06:03.704Z,1014.86
2019-05-16T06:07:03.855Z,1014.80
2019-05-16T06:08:04.012Z,1014.81
2019-05-16T06:09:04.823Z,1014.80
2019-05-16T06:10:04.303Z,1014.76
2019-05-16T06:11:04.526Z,1014.76
2019-05-16T06:12:07.440Z,1014.81
2019-05-16T06:13:04.899Z,1014.77
2019-05-16T06:14:05.023Z,1014.83
2019-05-16T06:15:08.835Z,1014.77
2019-05-16T06:16:06.283Z,1014.83
2019-05-16T06:17:05.509Z,1014.73
2019-05-16T06:18:05.663Z,1014.74
2019-05-16T06:19:06.312Z,1014.75
2019-05-16T06:20:05.926Z,1014.67
2019-05-16T06:21:06.055Z,1014.70
2019-05-16T06:22:06.176Z,1014.66
2019-05-16T06:23:06.437Z,1014.68
2019-05-16T06:24:07.333Z,1014.65
2019-05-16T06:25:06.688Z,1014.55
2019-05-16T06:26:06.841Z,1014.55
2019-05-16T06:27:07.012Z,1014.52
2019-05-16T06:28:07.229Z,1014.39
2019-05-16T06:29:10.177Z,1014.44
2019-05-16T06:30:07.713Z,1014.35
2019-05-16T06:31:13.917Z,1014.34
2019-05-16T06:32:10.370Z,1014.35
2019-05-16T06:33:10.210Z,1014.31
2019-05-16T06:34:15.034Z,1014.32
2019-05-16T06:35:10.644Z,1014.21
2019-05-16T06:36:11.073Z,1014.18
2019-05-16T06:37:10.334Z,1014.12
2019-05-16T06:38:09.942Z,1014.08
2019-05-16T06:39:11.477Z,1014.00
2019-05-16T06:40:11.321Z,1014.05
2019-05-16T06:41:10.622Z,1013.94
2019-05-16T06:42:10.958Z,1013.86
2019-05-16T06:43:10.918Z,1013.77
2019-05-16T06:44:11.175Z,1013.69
2019-05-16T06:45:10.722Z,1013.63
2019-05-16T06:46:11.151Z,1013.56
2019-05-16T06:47:19.480Z,1013.49
2019-05-16T06:48:13.071Z,1013.39
2019-05-16T06:49:11.289Z,1013.31
2019-05-16T06:50:11.647Z,1013.30
2019-05-16T06:51:11.554Z,1013.27
2019-05-16T06:52:11.666Z,1013.23
2019-05-16T06:53:11.824Z,1013.13
2019-05-16T06:54:11.975Z,1013.11
2019-05-16T06:55:12.150Z,1013.16
2019-05-16T06:56:12.295Z,1013.10
2019-05-16T06:57:12.398Z,1013.07
2019-05-16T06:58:12.545Z,1012.92
2019-05-16T06:59:12.688Z,1012.83
2019-05-16T07:00:13.834Z,1012.59
2019-05-16T07:01:13.082Z,1012.43
2019-05-16T07:02:26.528Z,1012.40
2019-05-16T07:03:16.331Z,1012.27
2019-05-16T07:04:14.333Z,1012.35
2019-05-16T07:05:13.838Z,1012.34
2019-05-16T07:06:36.020Z,1012.36
2019-05-16T07:07:16.152Z,1012.39
2019-05-16T07:08:14.384Z,1012.41
2019-05-16T07:09:14.543Z,1012.38
2019-05-16T07:10:14.688Z,1012.42
2019-05-16T07:11:14.793Z,1012.38
2019-05-16T07:12:15.828Z,1012.35
2019-05-16T07:13:15.202Z,1012.30
2019-05-16T07:14:15.357Z,1012.29
2019-05-16T07:15:15.499Z,1012.15
2019-05-16T07:16:15.645Z,1012.04
2019-05-16T07:17:15.822Z,1011.89
2019-05-16T07:18:16.825Z,1011.85
2019-05-16T07:19:16.206Z,1011.80
2019-05-16T07:20:16.359Z,1011.77
2019-05-16T07:21:17.351Z,1011.70
2019-05-16T07:22:16.851Z,1011.57
2019-05-16T07:23:16.961Z,1011.61
2019-05-16T07:24:17.149Z,1011.47
2019-05-16T07:25:17.289Z,1011.44
2019-05-16T07:26:17.523Z,1011.38
2019-05-16T07:27:17.650Z,1011.40
2019-05-16T07:28:17.793Z,1011.39
2019-05-16T07:29:20.073Z,1011.44
2019-05-16T07:30:19.969Z,1011.53
2019-05-16T07:31:19.899Z,1011.58
2019-05-16T07:32:19.890Z,1011.60
2019-05-16T07:33:21.255Z,1011.72
2019-05-16T07:34:20.622Z,1011.74
2019-05-16T07:35:20.522Z,1011.88
2019-05-16T07:36:20.834Z,1011.90
2019-05-16T07:37:20.288Z,1011.95
2019-05-16T07:38:20.245Z,1012.08
2019-05-16T07:39:20.522Z,1012.12
2019-05-16T07:40:26.274Z,1012.14
2019-05-16T07:41:22.368Z,1012.27
2019-05-16T07:42:20.199Z,1012.31
2019-05-16T07:43:21.230Z,1012.23
2019-05-16T07:44:20.986Z,1012.30
2019-05-16T07:45:22.348Z,1012.39
2019-05-16T07:46:20.949Z,1012.40
2019-05-16T07:47:20.996Z,1012.40
2019-05-16T07:48:21.964Z,1012.48
2019-05-16T07:49:22.247Z,1012.46
2019-05-16T07:50:21.493Z,1012.47
2019-05-16T07:51:21.677Z,1012.45
2019-05-16T07:52:21.800Z,1012.50
2019-05-16T07:53:21.946Z,1012.42
2019-05-16T07:54:22.088Z,1012.49
2019-05-16T07:55:22.832Z,1012.41
2019-05-16T07:56:22.857Z,1012.40
2019-05-16T07:57:23.142Z,1012.37
2019-05-16T07:58:23.776Z,1012.38
2019-05-16T07:59:23.840Z,1012.45
2019-05-16T08:00:43.419Z,1012.47
2019-05-16T08:01:25.231Z,1012.44
2019-05-16T08:02:23.443Z,1012.45
2019-05-16T08:03:24.576Z,1012.54
2019-05-16T08:04:23.771Z,1012.48
2019-05-16T08:05:23.929Z,1012.47
2019-05-16T08:06:24.067Z,1012.47
2019-05-16T08:07:24.353Z,1012.56
2019-05-16T08:08:24.775Z,1012.52
2019-05-16T08:09:24.585Z,1012.53
2019-05-16T08:10:37.111Z,1012.53
2019-05-16T08:11:25.848Z,1012.51
2019-05-16T08:12:26.435Z,1012.53
2019-05-16T08:13:26.184Z,1012.52
2019-05-16T08:14:25.861Z,1012.59
2019-05-16T08:15:25.486Z,1012.57
2019-05-16T08:16:25.630Z,1012.60
2019-05-16T08:17:25.766Z,1012.60
2019-05-16T08:18:25.899Z,1012.52
2019-05-16T08:19:26.060Z,1012.49
2019-05-16T08:20:26.198Z,1012.59
2019-05-16T08:21:27.802Z,1012.63
2019-05-16T08:22:30.357Z,1012.59
2019-05-16T08:23:26.854Z,1012.59
2019-05-16T08:24:26.881Z,1012.57
2019-05-16T08:25:27.022Z,1012.65
2019-05-16T08:26:27.189Z,1012.50
2019-05-16T08:27:30.484Z,1012.54
2019-05-16T08:28:30.833Z,1012.58
2019-05-16T08:29:31.655Z,1012.54
2019-05-16T08:30:31.162Z,1012.49
2019-05-16T08:31:31.557Z,1012.59
2019-05-16T08:32:31.264Z,1012.56
2019-05-16T08:33:32.091Z,1012.53
2019-05-16T08:34:32.258Z,1012.53
2019-05-16T08:35:31.623Z,1012.48
2019-05-16T08:36:31.279Z,1012.43
2019-05-16T08:38:31.457Z,1012.36
2019-05-16T08:39:31.242Z,1012.38
2019-05-16T08:40:31.546Z,1012.37
2019-05-16T08:41:31.785Z,1012.35
2019-05-16T08:42:32.203Z,1012.33
2019-05-16T08:43:31.861Z,1012.25
2019-05-16T08:45:32.790Z,1012.23
2019-05-16T08:46:32.253Z,1012.06
2019-05-16T08:47:32.405Z,1012.03
2019-05-16T08:48:32.101Z,1012.03
2019-05-16T08:49:32.573Z,1011.93
2019-05-16T08:50:05.379Z,1012.43
2019-05-16T08:50:34.994Z,1011.87
2019-05-16T08:51:33.845Z,1011.91
2019-05-16T08:52:32.220Z,1011.78
2019-05-16T08:53:32.357Z,1011.64
2019-05-16T08:54:32.569Z,1011.77
2019-05-16T08:55:32.684Z,1011.85
2019-05-16T08:56:32.822Z,1011.77
2019-05-16T08:57:33.552Z,1011.84
2019-05-16T08:58:33.448Z,1011.80
2019-05-16T08:59:34.074Z,1011.77
2019-05-16T09:00:34.542Z,1011.74
2019-05-16T09:01:35.147Z,1011.77
2019-05-16T09:02:36.882Z,1011.78
2019-05-16T09:03:35.124Z,1011.70
2019-05-16T09:04:35.362Z,1011.76
2019-05-16T09:05:34.535Z,1011.61
2019-05-16T09:06:35.361Z,1011.64
2019-05-16T09:07:34.857Z,1011.60
2019-05-16T09:08:35.013Z,1011.54
2019-05-16T09:09:44.233Z,1011.48
2019-05-16T09:10:58.722Z,1011.40
2019-05-16T09:11:44.218Z,1011.30
2019-05-16T09:12:37.746Z,1011.09
2019-05-16T09:13:37.116Z,1010.92
2019-05-16T09:14:39.092Z,1010.83
2019-05-16T09:15:38.921Z,1010.60
2019-05-16T09:16:37.493Z,1010.52
2019-05-16T09:17:38.446Z,1010.42
2019-05-16T09:18:30.615Z,1012.27
2019-05-16T09:18:41.090Z,1010.35
2019-05-16T09:19:39.017Z,1010.22
2019-05-16T09:20:38.074Z,1010.13
2019-05-16T09:21:38.535Z,1009.99
2019-05-16T09:22:37.970Z,1009.73
2019-05-16T09:23:38.682Z,1009.76
2019-05-16T09:24:38.027Z,1009.68
2019-05-16T09:25:38.044Z,1009.60
2019-05-16T09:26:38.463Z,1009.50
2019-05-16T09:27:40.361Z,1009.35
2019-05-16T09:28:39.043Z,1009.33
2019-05-16T09:29:39.824Z,1009.39
2019-05-16T09:30:38.933Z,1009.36
2019-05-16T09:31:39.072Z,1009.42
2019-05-16T09:32:42.574Z,1009.37
2019-05-16T09:33:40.415Z,1009.30
2019-05-16T09:34:39.515Z,1009.38
2019-05-16T09:35:39.655Z,1009.30
2019-05-16T09:36:39.834Z,1009.37
2019-05-16T09:37:39.990Z,1009.33
2019-05-16T09:38:40.879Z,1009.22
2019-05-16T09:39:40.867Z,1009.12
2019-05-16T09:40:41.368Z,1009.05
2019-05-16T09:41:54.474Z,1008.92
2019-05-16T09:42:42.848Z,1008.88
2019-05-16T09:43:40.915Z,1008.75
2019-05-16T09:44:41.051Z,1008.81
2019-05-16T09:45:41.867Z,1008.62
2019-05-16T09:46:41.374Z,1008.78
2019-05-16T09:47:41.523Z,1008.96
2019-05-16T09:48:41.677Z,1008.88
2019-05-16T09:49:41.803Z,1008.91
2019-05-16T09:50:42.875Z,1008.95
2019-05-16T09:51:42.859Z,1008.95
2019-05-16T09:52:42.325Z,1008.91
2019-05-16T09:53:42.474Z,1008.98
2019-05-16T09:54:42.616Z,1008.96
2019-05-16T09:55:42.733Z,1009.02
2019-05-16T09:56:42.871Z,1009.07
2019-05-16T09:57:43.012Z,1008.99
2019-05-16T09:58:43.170Z,1009.06
2019-05-16T09:59:43.355Z,1009.08
2019-05-16T10:00:43.497Z,1009.03
2019-05-16T10:01:44.384Z,1009.08
2019-05-16T10:02:43.900Z,1008.99
2019-05-16T10:03:47.825Z,1009.13
2019-05-16T10:04:47.399Z,1009.17
2019-05-16T10:05:46.495Z,1009.37
2019-05-16T10:06:44.602Z,1009.36
2019-05-16T10:07:46.994Z,1009.35
2019-05-16T10:08:46.885Z,1009.44
2019-05-16T10:09:49.818Z,1009.56
2019-05-16T10:10:47.872Z,1009.57
2019-05-16T10:11:49.133Z,1009.62
2019-05-16T10:12:46.559Z,1009.63
2019-05-16T10:13:47.165Z,1009.67
2019-05-16T10:14:47.402Z,1009.72
2019-05-16T10:15:47.233Z,1009.69
2019-05-16T10:16:47.900Z,1009.67
2019-05-16T10:17:47.837Z,1009.61
2019-05-16T10:18:47.793Z,1009.61
2019-05-16T10:19:47.546Z,1009.54
2019-05-16T10:20:48.052Z,1009.44
2019-05-16T10:21:47.249Z,1009.47
2019-05-16T10:22:50.563Z,1009.42
2019-05-16T10:23:48.611Z,1009.42
2019-05-16T10:24:47.905Z,1009.37
2019-05-16T10:25:48.313Z,1009.50
2019-05-16T10:26:53.554Z,1009.43
2019-05-16T10:27:51.367Z,1009.52
2019-05-16T10:28:48.542Z,1009.55
2019-05-16T10:29:48.792Z,1009.54
2019-05-16T10:30:50.147Z,1009.50
2019-05-16T10:31:53.208Z,1009.47
2019-05-16T10:32:50.341Z,1009.49
2019-05-16T10:33:49.572Z,1009.40
2019-05-16T10:34:49.698Z,1009.46
2019-05-16T10:35:49.861Z,1009.43
2019-05-16T10:36:50.012Z,1009.48
2019-05-16T10:37:50.171Z,1009.45
2019-05-16T10:38:50.310Z,1009.48
2019-05-16T10:39:50.429Z,1009.43
2019-05-16T10:40:50.716Z,1009.47
2019-05-16T10:41:50.892Z,1009.44
2019-05-16T10:42:51.023Z,1009.36
2019-05-16T10:43:51.889Z,1009.34
2019-05-16T10:44:51.384Z,1009.29
2019-05-16T10:45:53.726Z,1009.33
2019-05-16T10:46:52.690Z,1009.27
2019-05-16T10:47:52.804Z,1009.28
2019-05-16T10:48:52.030Z,1009.17
2019-05-16T10:49:52.152Z,1009.21
2019-05-16T10:50:52.435Z,1009.15
2019-05-16T10:51:52.891Z,1009.10
2019-05-16T10:53:20.279Z,1009.07
2019-05-16T10:54:08.938Z,1009.09
2019-05-16T10:54:59.167Z,1009.07
2019-05-16T10:55:57.140Z,1009.09
2019-05-16T10:56:53.450Z,1009.08
2019-05-16T10:57:53.472Z,1009.05
2019-05-16T10:59:26.033Z,1009.07
2019-05-16T11:00:06.808Z,1009.15
2019-05-16T11:01:24.285Z,1009.17
2019-05-16T11:01:59.368Z,1009.20
2019-05-16T11:02:58.728Z,1009.27
2019-05-16T11:03:56.856Z,1009.32
2019-05-16T11:05:02.861Z,1009.35
2019-05-16T11:06:05.297Z,1009.35
2019-05-16T11:06:57.382Z,1009.42
2019-05-16T11:07:57.413Z,1009.45
2019-05-16T11:08:57.230Z,1009.48
2019-05-16T11:10:02.986Z,1009.53
2019-05-16T11:10:58.069Z,1009.57
2019-05-16T11:11:57.285Z,1009.66
2019-05-16T11:12:59.506Z,1009.65
2019-05-16T11:13:57.657Z,1009.63
2019-05-16T11:14:56.904Z,1009.75
2019-05-16T11:15:57.030Z,1009.84
2019-05-16T11:16:58.127Z,1009.83
2019-05-16T11:18:00.150Z,1009.88
2019-05-16T11:19:13.790Z,1009.82
2019-05-16T11:19:59.727Z,1009.76
2019-05-16T11:20:58.359Z,1009.75
2019-05-16T11:21:59.179Z,1009.76
2019-05-16T11:22:58.401Z,1009.74
2019-05-16T11:23:58.517Z,1009.68
2019-05-16T11:24:58.641Z,1009.73
2019-05-16T11:25:58.767Z,1009.66
2019-05-16T11:26:59.002Z,1009.77
2019-05-16T11:27:59.144Z,1009.79
2019-05-16T11:28:59.301Z,1009.76
2019-05-16T11:29:59.437Z,1009.77
2019-05-16T11:31:03.592Z,1009.87
2019-05-16T11:32:00.799Z,1009.93
2019-05-16T11:33:00.053Z,1009.91
2019-05-16T11:34:00.218Z,1010.00
2019-05-16T11:35:00.332Z,1009.98
2019-05-16T11:36:01.389Z,1010.05
2019-05-16T11:37:00.620Z,1010.06
2019-05-16T11:38:00.758Z,1010.14
2019-05-16T11:39:01.831Z,1010.11
2019-05-16T11:40:02.076Z,1010.16
2019-05-16T11:41:01.303Z,1010.16
2019-05-16T11:42:01.423Z,1010.17
2019-05-16T11:43:09.303Z,1010.19
2019-05-16T11:44:06.414Z,1010.22
2019-05-16T11:45:02.062Z,1010.21
2019-05-16T11:46:02.118Z,1010.05
2019-05-16T11:47:02.262Z,1010.06
2019-05-16T11:48:02.398Z,1010.03
2019-05-16T11:49:03.405Z,1010.00
2019-05-16T11:50:02.882Z,1009.93
2019-05-16T11:51:03.009Z,1009.89
2019-05-16T11:52:03.181Z,1009.88
2019-05-16T11:53:03.289Z,1009.82
2019-05-16T11:54:03.526Z,1009.87
2019-05-16T11:55:03.776Z,1009.88
2019-05-16T11:56:03.898Z,1009.87
2019-05-16T11:57:06.644Z,1009.77
2019-05-16T11:58:06.615Z,1009.83
2019-05-16T11:59:07.617Z,1009.79
2019-05-16T12:00:04.669Z,1009.80
2019-05-16T12:01:07.299Z,1009.76
2019-05-16T12:02:05.020Z,1009.78
2019-05-16T12:03:05.424Z,1009.76
2019-05-16T12:04:07.790Z,1009.78
2019-05-16T12:05:05.536Z,1009.80
2019-05-16T12:06:10.858Z,1009.84
2019-05-16T12:07:07.718Z,1009.90
2019-05-16T12:08:07.850Z,1009.88
2019-05-16T12:09:07.134Z,1009.87
2019-05-16T12:10:07.568Z,1009.81
2019-05-16T12:11:07.558Z,1009.96